createdAt,value
2023-03-15T00:01:10.011Z,100313.13
2023-03-15T00:04:13.250Z,100317.94
2023-03-15T00:07:17.488Z,100321.69
2023-03-15T00:10:20.553Z,100337.06
2023-03-15T00:13:23.579Z,100342.63
2023-03-15T00:16:27.345Z,100336.13
2023-03-15T00:19:30.175Z,100338.78
2023-03-15T00:22:34.615Z,100345.47
2023-03-15T00:25:38.045Z,100354.53
2023-03-15T00:28:41.719Z,100362.41
2023-03-15T00:31:44.596Z,100362.09
2023-03-15T00:34:49.205Z,100378.25
2023-03-15T00:37:56.295Z,100381.41
2023-03-15T00:40:59.372Z,100384.31
2023-03-15T00:44:02.120Z,100374.72
2023-03-15T00:47:05.157Z,100389.97
2023-03-15T00:50:08.435Z,100395.28
2023-03-15T00:53:12.984Z,100396.66
2023-03-15T00:56:18.254Z,100398.53
2023-03-15T00:59:21.972Z,100409.09
2023-03-15T01:02:24.869Z,100408.00
2023-03-15T01:05:27.727Z,100408.69
2023-03-15T01:08:31.961Z,100413.72
2023-03-15T01:11:34.695Z,100421.47
2023-03-15T01:14:39.105Z,100429.97
2023-03-15T01:17:42.291Z,100428.13
2023-03-15T01:20:45.936Z,100431.66
2023-03-15T01:23:50.642Z,100445.34
2023-03-15T01:26:53.316Z,100443.88
2023-03-15T01:29:56.738Z,100451.00
2023-03-15T01:32:59.560Z,100448.47
2023-03-15T01:36:08.293Z,100451.97
2023-03-15T01:39:12.607Z,100454.09
2023-03-15T01:42:15.879Z,100457.25
2023-03-15T01:46:01.123Z,100454.31
2023-03-15T01:49:08.663Z,100456.13
2023-03-15T01:52:14.733Z,100456.28
2023-03-15T01:55:21.604Z,100463.38
2023-03-15T01:58:27.501Z,100469.47
2023-03-15T02:01:31.285Z,100475.75
2023-03-15T02:04:39.520Z,100472.00
2023-03-15T02:07:50.973Z,100465.94
2023-03-15T02:10:58.820Z,100485.78
2023-03-15T02:14:03.923Z,100480.78
2023-03-15T02:17:06.924Z,100478.09
2023-03-15T02:20:27.566Z,100482.28
2023-03-15T02:23:32.430Z,100487.28
2023-03-15T02:26:43.672Z,100495.59
2023-03-15T02:29:47.957Z,100497.91
2023-03-15T02:32:51.254Z,100501.00
2023-03-15T02:35:54.407Z,100497.88
2023-03-15T02:38:57.927Z,100501.03
2023-03-15T02:42:01.807Z,100507.47
2023-03-15T02:45:07.171Z,100514.97
2023-03-15T02:48:11.887Z,100516.22
2023-03-15T02:51:21.006Z,100517.25
2023-03-15T02:54:23.893Z,100522.66
2023-03-15T02:57:26.675Z,100520.56
2023-03-15T03:00:31.118Z,100521.00
2023-03-15T03:03:33.866Z,100533.91
2023-03-15T03:06:36.718Z,100538.91
2023-03-15T03:09:39.634Z,100531.41
2023-03-15T03:12:42.607Z,100547.41
2023-03-15T03:15:46.875Z,100549.94
2023-03-15T03:18:50.070Z,100548.69
2023-03-15T03:21:53.725Z,100548.69
2023-03-15T03:24:56.546Z,100553.66
2023-03-15T03:27:59.465Z,100564.09
2023-03-15T03:31:03.679Z,100567.25
2023-03-15T03:34:06.653Z,100565.97
2023-03-15T03:37:09.658Z,100567.47
2023-03-15T03:40:13.797Z,100573.72
2023-03-15T03:43:16.598Z,100576.19
2023-03-15T03:46:21.134Z,100582.81
2023-03-15T03:49:23.854Z,100597.81
2023-03-15T03:52:26.774Z,100598.91
2023-03-15T03:55:29.476Z,100603.88
2023-03-15T03:58:32.573Z,100602.66
2023-03-15T04:01:36.827Z,100604.31
2023-03-15T04:04:41.364Z,100617.41
2023-03-15T04:07:44.329Z,100613.03
2023-03-15T04:10:47.037Z,100612.84
2023-03-15T04:13:49.896Z,100622.22
2023-03-15T04:16:54.692Z,100627.66
2023-03-15T04:19:58.068Z,100625.16
2023-03-15T04:23:00.908Z,100633.28
2023-03-15T04:26:03.939Z,100633.09
2023-03-15T04:29:07.174Z,100634.50
2023-03-15T04:32:11.979Z,100640.34
2023-03-15T04:35:14.955Z,100634.31
2023-03-15T04:38:17.840Z,100641.38
2023-03-15T04:41:20.763Z,100648.25
2023-03-15T04:44:26.630Z,100648.19
2023-03-15T04:47:31.238Z,100647.53
2023-03-15T04:50:33.996Z,100657.00
2023-03-15T04:53:38.667Z,100658.88
2023-03-15T04:56:42.162Z,100660.56
2023-03-15T04:59:44.862Z,100663.28
2023-03-15T05:02:54.736Z,100673.69
2023-03-15T05:05:57.820Z,100674.50
2023-03-15T05:09:00.809Z,100685.19
2023-03-15T05:12:04.145Z,100690.16
2023-03-15T05:15:08.118Z,100683.91
2023-03-15T05:18:12.530Z,100694.16
2023-03-15T05:21:15.384Z,100694.75
2023-03-15T05:24:18.227Z,100701.47
2023-03-15T05:27:21.111Z,100702.50
2023-03-15T05:30:23.865Z,100709.97
2023-03-15T05:33:28.086Z,100721.84
2023-03-15T05:36:31.034Z,100736.63
2023-03-15T05:39:34.824Z,100729.25
2023-03-15T05:42:37.768Z,100738.41
2023-03-15T05:45:41.274Z,100733.56
2023-03-15T05:48:45.355Z,100749.25
2023-03-15T05:51:49.226Z,100749.25
2023-03-15T05:54:52.192Z,100762.16
2023-03-15T05:57:54.956Z,100770.91
2023-03-15T06:00:57.680Z,100768.97
2023-03-15T06:04:01.822Z,100767.72
2023-03-15T06:07:05.113Z,100776.25
2023-03-15T06:10:09.166Z,100782.41
2023-03-15T06:13:12.207Z,100796.31
2023-03-15T06:16:14.975Z,100803.41
2023-03-15T06:19:19.189Z,100797.59
2023-03-15T06:22:23.091Z,100806.88
2023-03-15T06:25:26.016Z,100810.25
2023-03-15T06:28:28.881Z,100816.09
2023-03-15T06:31:31.573Z,100820.47
2023-03-15T06:34:35.722Z,100832.13
2023-03-15T06:37:39.122Z,100836.75
2023-03-15T06:40:41.858Z,100836.13
2023-03-15T06:43:44.591Z,100845.34
2023-03-15T06:46:47.365Z,100849.47
2023-03-15T06:49:51.586Z,100856.41
2023-03-15T06:52:54.350Z,100865.72
2023-03-15T06:55:57.035Z,100860.97
2023-03-15T06:59:00.343Z,100872.94
2023-03-15T07:02:03.451Z,100872.94
2023-03-15T07:05:08.785Z,100881.88
2023-03-15T07:08:11.655Z,100872.34
2023-03-15T07:11:14.812Z,100881.09
2023-03-15T07:14:17.598Z,100886.06
2023-03-15T07:17:20.379Z,100885.69
2023-03-15T07:20:24.577Z,100888.59
2023-03-15T07:23:27.446Z,100890.31
2023-03-15T07:26:30.226Z,100897.63
2023-03-15T07:29:33.213Z,100898.66
2023-03-15T07:32:38.993Z,100903.50
2023-03-15T07:35:43.355Z,100907.25
2023-03-15T07:38:46.152Z,100898.91
2023-03-15T07:41:48.824Z,100909.53
2023-03-15T07:44:51.675Z,100912.09
2023-03-15T07:47:56.632Z,100916.03
2023-03-15T07:51:00.821Z,100919.22
2023-03-15T07:54:03.572Z,100924.41
2023-03-15T07:57:06.684Z,100924.66
2023-03-15T08:00:13.649Z,100931.31
2023-03-15T08:03:16.473Z,100929.03
2023-03-15T08:06:20.863Z,100936.31
2023-03-15T08:09:23.656Z,100938.00
2023-03-15T08:12:26.702Z,100942.41
2023-03-15T08:15:29.390Z,100942.22
2023-03-15T08:18:32.257Z,100948.47
2023-03-15T08:21:36.412Z,100953.88
2023-03-15T08:24:39.411Z,100951.00
2023-03-15T08:27:43.108Z,100960.59
2023-03-15T08:30:45.933Z,100960.00
2023-03-15T08:33:49.318Z,100961.63
2023-03-15T08:36:53.510Z,100974.16
2023-03-15T08:40:01.117Z,100975.81
2023-03-15T08:43:04.180Z,100983.34
2023-03-15T08:46:07.030Z,100990.84
2023-03-15T08:49:10.037Z,100997.53
2023-03-15T08:52:14.772Z,101005.50
2023-03-15T08:55:18.833Z,100999.44
2023-03-15T08:58:21.819Z,101007.59
2023-03-15T09:01:25.019Z,101009.28
2023-03-15T09:04:27.790Z,101010.53
2023-03-15T09:07:32.814Z,101019.50
2023-03-15T09:10:35.604Z,101030.38
2023-03-15T09:13:39.172Z,101027.44
2023-03-15T09:16:42.005Z,101031.22
2023-03-15T09:19:44.738Z,101038.72
2023-03-15T09:22:53.990Z,101039.16
2023-03-15T09:25:56.738Z,101034.34
2023-03-15T09:28:59.431Z,101046.91
2023-03-15T09:32:02.621Z,101056.09
2023-03-15T09:35:06.990Z,101051.06
2023-03-15T09:38:11.679Z,101061.50
2023-03-15T09:41:20.958Z,101058.59
2023-03-15T09:44:35.937Z,101074.66
2023-03-15T09:47:47.574Z,101065.56
2023-03-15T09:50:54.887Z,101067.00
2023-03-15T09:54:03.369Z,101075.50
2023-03-15T09:57:11.482Z,101069.69
2023-03-15T10:00:18.847Z,101080.13
2023-03-15T10:03:30.233Z,101092.91
2023-03-15T10:06:36.510Z,101091.84
2023-03-15T10:09:42.007Z,101092.69
2023-03-15T10:12:51.513Z,101097.03
2023-03-15T10:16:05.141Z,101099.28
2023-03-15T10:19:16.325Z,101092.06
2023-03-15T10:22:27.671Z,101094.19
2023-03-15T10:25:33.321Z,101083.16
2023-03-15T10:28:38.483Z,101091.97
2023-03-15T10:31:44.832Z,101100.81
2023-03-15T10:34:51.030Z,101102.38
2023-03-15T10:37:53.899Z,101100.09
2023-03-15T10:41:00.684Z,101107.63
2023-03-15T10:44:06.727Z,101104.56
2023-03-15T10:47:23.658Z,101095.94
2023-03-15T10:50:29.104Z,101105.53
2023-03-15T10:53:31.977Z,101104.69
2023-03-15T10:56:45.179Z,101112.59
2023-03-15T10:59:58.352Z,101101.91
2023-03-15T11:03:06.824Z,101109.25
2023-03-15T11:06:21.786Z,101106.16
2023-03-15T11:09:26.670Z,101120.88
2023-03-15T11:12:33.429Z,101129.00
2023-03-15T11:15:36.370Z,101122.88
2023-03-15T11:18:47.402Z,101122.16
2023-03-15T11:21:52.451Z,101126.94
2023-03-15T11:24:56.513Z,101111.09
2023-03-15T11:28:01.645Z,101125.28
2023-03-15T11:31:06.332Z,101130.38
2023-03-15T11:34:14.174Z,101120.69
2023-03-15T11:37:21.592Z,101111.63
2023-03-15T11:40:32.747Z,101123.63
2023-03-15T11:43:49.073Z,101124.34
2023-03-15T11:46:58.353Z,101121.78
2023-03-15T11:50:01.228Z,101130.22
2023-03-15T11:53:06.905Z,101132.28
2023-03-15T11:56:25.169Z,101123.28
2023-03-15T11:59:32.606Z,101121.19
2023-03-15T12:02:38.470Z,101125.84
2023-03-15T12:05:46.595Z,101128.59
2023-03-15T12:08:51.623Z,101127.38
2023-03-15T12:11:58.454Z,101113.59
2023-03-15T12:15:07.399Z,101118.94
2023-03-15T12:18:15.823Z,101112.66
2023-03-15T12:21:23.232Z,101113.66
2023-03-15T12:24:29.063Z,101122.78
2023-03-15T12:27:32.128Z,101110.13
2023-03-15T12:30:42.264Z,101113.91
2023-03-15T12:33:48.154Z,101122.75
2023-03-15T12:36:54.390Z,101119.47
2023-03-15T12:40:05.324Z,101133.47
2023-03-15T12:43:09.376Z,101127.13
2023-03-15T12:46:45.590Z,101130.72
2023-03-15T12:49:50.215Z,101124.47
2023-03-15T12:52:53.895Z,101122.13
2023-03-15T12:56:07.959Z,101126.56
2023-03-15T12:59:36.691Z,101123.22
2023-03-15T13:02:47.014Z,101124.28
2023-03-15T13:06:04.501Z,101118.13
2023-03-15T13:09:19.860Z,101129.03
2023-03-15T13:12:30.293Z,101127.88
2023-03-15T13:15:40.624Z,101128.78
2023-03-15T13:18:55.246Z,101130.38
2023-03-15T13:22:12.073Z,101132.31
2023-03-15T13:25:22.727Z,101156.44
2023-03-15T13:28:37.276Z,101163.06
2023-03-15T13:31:40.578Z,101192.41
2023-03-15T13:34:46.308Z,101192.00
2023-03-15T13:37:50.629Z,101195.09
2023-03-15T13:40:54.688Z,101204.72
2023-03-15T13:43:59.541Z,101197.22
2023-03-15T13:47:02.380Z,101195.06
2023-03-15T13:50:07.055Z,101195.84
2023-03-15T13:53:20.032Z,101198.22
2023-03-15T13:56:37.401Z,101203.25
2023-03-15T13:59:48.907Z,101197.94
2023-03-15T14:02:55.532Z,101194.88
2023-03-15T14:06:00.201Z,101191.44
2023-03-15T14:09:11.562Z,101187.72
2023-03-15T14:12:23.267Z,101189.66
2023-03-15T14:15:28.697Z,101182.75
2023-03-15T14:18:34.990Z,101177.19
2023-03-15T14:21:38.637Z,101184.06
2023-03-15T14:24:45.801Z,101178.28
2023-03-15T14:27:48.766Z,101177.69
2023-03-15T14:30:59.514Z,101174.91
2023-03-15T14:34:10.057Z,101178.06
2023-03-15T14:37:31.335Z,101173.56
2023-03-15T14:40:38.537Z,101176.31
2023-03-15T14:43:41.704Z,101170.34
2023-03-15T14:46:44.434Z,101184.22
2023-03-15T14:49:47.644Z,101184.34
2023-03-15T14:52:51.815Z,101180.84
2023-03-15T14:55:56.170Z,101175.72
2023-03-15T14:58:59.249Z,101187.47
2023-03-15T15:02:03.009Z,101187.16
2023-03-15T15:05:17.783Z,101194.88
2023-03-15T15:08:23.308Z,101186.91
2023-03-15T15:11:28.550Z,101193.94
2023-03-15T15:14:31.621Z,101191.53
2023-03-15T15:17:34.738Z,101200.56
2023-03-15T15:20:37.862Z,101202.69
2023-03-15T15:23:57.000Z,101205.88
2023-03-15T15:27:02.082Z,101211.06
2023-03-15T15:30:05.732Z,101215.03
2023-03-15T15:33:08.604Z,101224.81
2023-03-15T15:36:15.972Z,101228.56
2023-03-15T15:39:23.025Z,101236.09
2023-03-15T15:42:27.394Z,101249.66
2023-03-15T15:45:34.334Z,101245.41
2023-03-15T15:48:37.116Z,101248.66
2023-03-15T15:51:45.641Z,101255.13
2023-03-15T15:54:48.500Z,101296.16
2023-03-15T15:57:54.991Z,101315.91
2023-03-15T16:00:57.859Z,101328.44
2023-03-15T16:04:01.961Z,101336.63
2023-03-15T16:07:05.004Z,101349.72
2023-03-15T16:10:09.588Z,101351.63
2023-03-15T16:13:14.385Z,101324.19
2023-03-15T16:16:18.686Z,101315.00
2023-03-15T16:19:21.495Z,101304.03
2023-03-15T16:22:27.130Z,101310.81
2023-03-15T16:25:33.774Z,101302.03
2023-03-15T16:28:37.805Z,101302.88
2023-03-15T16:31:40.558Z,101314.41
2023-03-15T16:34:45.213Z,101304.38
2023-03-15T16:37:48.445Z,101317.72
2023-03-15T16:40:53.069Z,101329.47
2023-03-15T16:43:57.535Z,101326.97
2023-03-15T16:47:00.427Z,101333.03
2023-03-15T16:50:03.735Z,101337.22
2023-03-15T16:53:10.431Z,101335.22
2023-03-15T16:56:15.551Z,101350.88
2023-03-15T16:59:20.387Z,101355.41
2023-03-15T17:02:25.601Z,101359.97
2023-03-15T17:05:28.728Z,101372.25
2023-03-15T17:08:31.584Z,101372.22
2023-03-15T17:11:34.408Z,101377.59
2023-03-15T17:14:38.949Z,101383.97
2023-03-15T17:17:41.695Z,101383.53
2023-03-15T17:20:44.883Z,101385.78
2023-03-15T17:23:48.634Z,101388.94
2023-03-15T17:26:52.168Z,101403.47
2023-03-15T17:29:56.396Z,101409.63
2023-03-15T17:32:59.229Z,101411.34
2023-03-15T17:36:04.637Z,101407.94
2023-03-15T17:39:10.527Z,101421.16
2023-03-15T17:42:15.711Z,101423.34
2023-03-15T17:45:22.176Z,101428.25
2023-03-15T17:48:25.662Z,101431.34
2023-03-15T17:51:31.401Z,101436.97
2023-03-15T17:54:34.771Z,101435.16
2023-03-15T17:57:40.378Z,101439.34
2023-03-15T18:00:48.379Z,101446.19
2023-03-15T18:03:52.356Z,101451.56
2023-03-15T18:06:55.446Z,101456.16
2023-03-15T18:09:59.774Z,101449.25
2023-03-15T18:13:03.461Z,101463.59
2023-03-15T18:16:08.167Z,101462.47
2023-03-15T18:19:10.978Z,101470.22
2023-03-15T18:22:17.675Z,101478.25
2023-03-15T18:25:24.187Z,101471.66
2023-03-15T18:28:27.348Z,101463.25
2023-03-15T18:31:32.398Z,101471.75
2023-03-15T18:34:36.377Z,101480.53
2023-03-15T18:37:39.926Z,101480.34
2023-03-15T18:40:43.713Z,101480.41
2023-03-15T18:43:49.620Z,101489.03
2023-03-15T18:46:54.250Z,101487.84
2023-03-15T18:50:04.465Z,101482.75
2023-03-15T18:53:12.696Z,101489.31
2023-03-15T18:56:19.181Z,101497.16
2023-03-15T18:59:24.168Z,101496.22
2023-03-15T19:02:30.323Z,101493.34
2023-03-15T19:05:36.111Z,101502.69
2023-03-15T19:08:39.244Z,101506.59
2023-03-15T19:11:43.681Z,101512.75
2023-03-15T19:14:46.435Z,101508.00
2023-03-15T19:17:52.636Z,101516.69
2023-03-15T19:20:55.542Z,101519.41
2023-03-15T19:23:58.441Z,101521.06
2023-03-15T19:27:01.586Z,101528.19
2023-03-15T19:30:08.885Z,101534.16
2023-03-15T19:33:14.993Z,101527.13
2023-03-15T19:36:18.093Z,101537.31
2023-03-15T19:39:21.073Z,101536.69
2023-03-15T19:42:23.763Z,101535.91
2023-03-15T19:45:26.514Z,101535.91
2023-03-15T19:48:31.091Z,101542.56
2023-03-15T19:51:33.783Z,101537.06
2023-03-15T19:54:36.693Z,101547.56
2023-03-15T19:57:39.840Z,101547.38
2023-03-15T20:00:42.854Z,101543.44
2023-03-15T20:03:47.374Z,101554.56
2023-03-15T20:06:50.796Z,101556.09
2023-03-15T20:09:53.885Z,101561.09
2023-03-15T20:12:59.445Z,101566.19
2023-03-15T20:16:02.612Z,101563.03
2023-03-15T20:19:06.717Z,101561.31
2023-03-15T20:22:09.539Z,101577.13
2023-03-15T20:25:13.550Z,101568.69
2023-03-15T20:28:16.450Z,101574.00
2023-03-15T20:31:20.143Z,101581.09
2023-03-15T20:34:24.375Z,101587.81
2023-03-15T20:37:28.012Z,101580.22
2023-03-15T20:40:30.739Z,101584.91
2023-03-15T20:43:34.070Z,101588.25
2023-03-15T20:46:37.172Z,101587.56
2023-03-15T20:49:41.753Z,101595.13
2023-03-15T20:52:44.470Z,101593.22
2023-03-15T20:55:47.428Z,101593.28
2023-03-15T20:58:50.316Z,101596.44
2023-03-15T21:01:53.151Z,101606.22
2023-03-15T21:04:57.333Z,101612.25
2023-03-15T21:08:00.527Z,101615.69
2023-03-15T21:11:03.875Z,101609.91
2023-03-15T21:14:06.973Z,101606.00
2023-03-15T21:17:09.680Z,101610.94
2023-03-15T21:20:20.632Z,101614.06
2023-03-15T21:23:23.478Z,101605.00
2023-03-15T21:26:26.321Z,101609.06
2023-03-15T21:29:29.211Z,101610.81
2023-03-15T21:32:32.113Z,101614.66
2023-03-15T21:35:36.542Z,101617.09
2023-03-15T21:38:39.493Z,101618.78
2023-03-15T21:41:42.379Z,101618.94
2023-03-15T21:44:45.594Z,101627.66
2023-03-15T21:47:48.298Z,101633.44
2023-03-15T21:50:53.768Z,101618.97
2023-03-15T21:53:56.655Z,101636.00
2023-03-15T21:56:59.538Z,101631.50
2023-03-15T22:00:02.470Z,101636.09
2023-03-15T22:03:05.508Z,101635.38
2023-03-15T22:06:10.004Z,101640.84
2023-03-15T22:09:12.751Z,101646.63
2023-03-15T22:12:15.901Z,101648.25
2023-03-15T22:15:18.985Z,101650.28
2023-03-15T22:18:22.251Z,101648.53
2023-03-15T22:21:26.610Z,101648.81
2023-03-15T22:24:29.344Z,101662.97
2023-03-15T22:27:32.320Z,101660.34
2023-03-15T22:30:38.512Z,101655.78
2023-03-15T22:33:41.505Z,101662.84
2023-03-15T22:36:46.140Z,101660.97
2023-03-15T22:39:48.994Z,101677.34
2023-03-15T22:42:52.979Z,101664.81
2023-03-15T22:45:55.926Z,101682.75
2023-03-15T22:48:58.877Z,101673.94
2023-03-15T22:52:03.120Z,101677.09
2023-03-15T22:55:07.550Z,101681.69
2023-03-15T22:58:10.377Z,101685.31
2023-03-15T23:01:13.280Z,101676.91
2023-03-15T23:04:16.078Z,101686.94
2023-03-15T23:07:20.552Z,101685.91
2023-03-15T23:10:23.427Z,101681.88
2023-03-15T23:13:26.424Z,101685.28
2023-03-15T23:16:29.458Z,101684.88
2023-03-15T23:19:34.388Z,101690.50
2023-03-15T23:22:38.601Z,101693.94
2023-03-15T23:25:41.520Z,101698.22
2023-03-15T23:28:44.480Z,101703.28
2023-03-15T23:31:47.361Z,101700.09
2023-03-15T23:34:51.321Z,101704.66
2023-03-15T23:37:56.542Z,101699.69
2023-03-15T23:41:00.048Z,101708.00
2023-03-15T23:44:03.709Z,101700.75
2023-03-15T23:47:07.361Z,101706.34
2023-03-15T23:50:13.715Z,101707.53
2023-03-15T23:53:17.987Z,101716.47
2023-03-15T23:56:20.953Z,101709.91
2023-03-15T23:59:23.811Z,101712.47
